createdAt,value
2023-06-07T00:00:40.874Z,1.38
2023-06-07T00:03:15.955Z,1.48
2023-06-07T00:05:50.425Z,1.58
2023-06-07T00:08:25.098Z,1.25
2023-06-07T00:10:59.600Z,1.40
2023-06-07T00:13:34.957Z,1.20
2023-06-07T00:16:09.201Z,1.33
2023-06-07T00:18:43.300Z,1.17
2023-06-07T00:21:20.947Z,1.25
2023-06-07T00:23:55.682Z,1.20
2023-06-07T00:26:29.815Z,1.50
2023-06-07T00:29:05.346Z,1.30
2023-06-07T00:31:39.547Z,1.20
2023-06-07T00:34:13.705Z,1.48
2023-06-07T00:36:48.517Z,1.40
2023-06-07T00:39:23.613Z,1.17
2023-06-07T00:41:57.963Z,1.20
2023-06-07T00:44:33.459Z,1.20
2023-06-07T00:47:07.798Z,1.30
2023-06-07T00:49:41.978Z,1.60
2023-06-07T00:52:16.480Z,1.10
2023-06-07T00:54:50.851Z,1.40
2023-06-07T00:57:24.994Z,1.20
2023-06-07T01:00:00.746Z,1.00
2023-06-07T01:02:35.444Z,0.95
2023-06-07T01:05:10.537Z,1.30
2023-06-07T01:07:47.292Z,1.48
2023-06-07T01:10:21.700Z,1.05
2023-06-07T01:12:58.100Z,1.10
2023-06-07T01:15:34.275Z,1.00
2023-06-07T01:18:10.879Z,0.90
2023-06-07T01:20:53.491Z,1.38
2023-06-07T01:23:32.861Z,1.80
2023-06-07T01:26:07.697Z,1.25
2023-06-07T01:28:43.276Z,1.35
2023-06-07T01:31:18.190Z,1.00
2023-06-07T01:33:52.884Z,1.42
2023-06-07T01:36:30.090Z,0.95
2023-06-07T01:39:06.609Z,1.20
2023-06-07T01:41:41.825Z,1.40
2023-06-07T01:44:16.687Z,1.20
2023-06-07T01:46:52.008Z,1.30
2023-06-07T01:49:26.187Z,1.15
2023-06-07T01:52:00.840Z,1.40
2023-06-07T01:54:36.482Z,1.30
2023-06-07T01:57:23.622Z,1.30
2023-06-07T02:00:13.061Z,1.05
2023-06-07T02:02:52.560Z,1.02
2023-06-07T02:05:31.581Z,1.00
2023-06-07T02:08:21.737Z,1.30
2023-06-07T02:10:57.763Z,1.10
2023-06-07T02:13:36.477Z,1.52
2023-06-07T02:16:12.031Z,1.20
2023-06-07T02:18:46.114Z,1.10
2023-06-07T02:21:20.184Z,1.20
2023-06-07T02:23:54.413Z,1.45
2023-06-07T02:26:30.673Z,1.25
2023-06-07T02:29:04.793Z,1.05
2023-06-07T02:31:39.020Z,1.38
2023-06-07T02:34:13.132Z,1.38
2023-06-07T02:36:47.396Z,1.50
2023-06-07T02:39:21.649Z,1.05
2023-06-07T02:41:59.517Z,1.25
2023-06-07T02:44:33.642Z,1.05
2023-06-07T02:47:08.352Z,1.45
2023-06-07T02:49:42.591Z,1.10
2023-06-07T02:52:16.755Z,1.20
2023-06-07T02:54:51.093Z,1.40
2023-06-07T02:57:26.538Z,1.67
2023-06-07T03:00:01.380Z,1.30
2023-06-07T03:02:37.949Z,1.20
2023-06-07T03:05:13.909Z,1.50
2023-06-07T03:07:48.171Z,1.20
2023-06-07T03:10:22.385Z,1.15
2023-06-07T03:12:57.814Z,1.30
2023-06-07T03:15:33.617Z,1.30
2023-06-07T03:18:08.228Z,1.08
2023-06-07T03:20:42.829Z,1.10
2023-06-07T03:23:17.004Z,1.20
2023-06-07T03:25:51.149Z,1.02
2023-06-07T03:28:26.860Z,1.40
2023-06-07T03:31:01.338Z,0.98
2023-06-07T03:33:35.444Z,1.38
2023-06-07T03:36:10.105Z,1.30
2023-06-07T03:38:44.213Z,1.30
2023-06-07T03:41:18.302Z,1.30
2023-06-07T03:43:53.847Z,1.23
2023-06-07T03:46:27.951Z,1.35
2023-06-07T03:49:02.097Z,1.30
2023-06-07T03:51:39.697Z,1.27
2023-06-07T03:54:13.902Z,1.48
2023-06-07T03:56:48.149Z,1.50
2023-06-07T03:59:25.170Z,1.10
2023-06-07T04:01:59.763Z,1.15
2023-06-07T04:04:34.831Z,1.40
2023-06-07T04:07:09.939Z,1.45
2023-06-07T04:09:44.079Z,1.30
2023-06-07T04:12:20.396Z,1.58
2023-06-07T04:14:55.904Z,1.45
2023-06-07T04:17:31.072Z,1.52
2023-06-07T04:20:07.500Z,1.27
2023-06-07T04:22:42.521Z,1.45
2023-06-07T04:25:17.831Z,1.23
2023-06-07T04:27:52.431Z,1.20
2023-06-07T04:30:35.420Z,1.40
2023-06-07T04:33:14.248Z,1.10
2023-06-07T04:35:48.830Z,1.52
2023-06-07T04:38:23.770Z,1.23
2023-06-07T04:40:58.318Z,1.27
2023-06-07T04:43:37.701Z,1.30
2023-06-07T04:46:14.231Z,1.40
2023-06-07T04:48:48.492Z,1.42
2023-06-07T04:51:23.655Z,1.90
2023-06-07T04:53:59.736Z,1.45
2023-06-07T04:56:33.907Z,1.45
2023-06-07T04:59:09.666Z,1.45
2023-06-07T05:01:45.743Z,1.90
2023-06-07T05:04:20.108Z,1.40
2023-06-07T05:06:59.778Z,1.67
2023-06-07T05:09:34.373Z,1.70
2023-06-07T05:12:10.161Z,1.83
2023-06-07T05:14:44.253Z,1.55
2023-06-07T05:17:20.767Z,1.65
2023-06-07T05:19:54.888Z,1.80
2023-06-07T05:22:28.976Z,2.00
2023-06-07T05:25:03.206Z,1.80
2023-06-07T05:27:37.691Z,2.53
2023-06-07T05:30:13.001Z,2.17
2023-06-07T05:32:49.892Z,2.10
2023-06-07T05:35:24.227Z,2.00
2023-06-07T05:37:58.314Z,2.00
2023-06-07T05:40:32.776Z,1.90
2023-06-07T05:43:07.432Z,1.60
2023-06-07T05:45:43.588Z,1.63
2023-06-07T05:48:19.218Z,2.15
2023-06-07T05:50:54.314Z,2.15
2023-06-07T05:53:29.145Z,1.98
2023-06-07T05:56:03.909Z,2.28
2023-06-07T05:58:38.044Z,1.60
2023-06-07T06:01:13.880Z,1.75
2023-06-07T06:03:49.362Z,1.63
2023-06-07T06:06:25.104Z,1.98
2023-06-07T06:08:59.312Z,1.88
2023-06-07T06:11:33.656Z,2.00
2023-06-07T06:14:07.872Z,1.70
2023-06-07T06:16:42.055Z,2.00
2023-06-07T06:19:17.478Z,1.90
2023-06-07T06:21:51.573Z,1.80
2023-06-07T06:24:25.807Z,2.25
2023-06-07T06:26:59.940Z,1.85
2023-06-07T06:29:34.020Z,1.65
2023-06-07T06:32:10.196Z,1.55
2023-06-07T06:34:46.503Z,2.60
2023-06-07T06:37:21.576Z,1.85
2023-06-07T06:39:56.470Z,2.10
2023-06-07T06:42:30.571Z,1.75
2023-06-07T06:45:05.482Z,2.30
2023-06-07T06:47:42.948Z,1.90
2023-06-07T06:50:32.083Z,1.83
2023-06-07T06:53:10.632Z,1.75
2023-06-07T06:55:48.421Z,2.58
2023-06-07T06:58:22.550Z,1.50
2023-06-07T07:00:56.834Z,1.70
2023-06-07T07:03:31.713Z,1.80
2023-06-07T07:06:08.886Z,1.92
2023-06-07T07:08:42.980Z,2.00
2023-06-07T07:11:17.054Z,1.80
2023-06-07T07:13:51.160Z,2.00
2023-06-07T07:16:25.368Z,2.10
2023-06-07T07:19:00.149Z,1.60
2023-06-07T07:21:36.286Z,1.50
2023-06-07T07:24:10.598Z,1.52
2023-06-07T07:26:44.828Z,1.55
2023-06-07T07:29:18.937Z,1.30
2023-06-07T07:31:53.107Z,1.50
2023-06-07T07:34:27.366Z,1.65
2023-06-07T07:37:04.658Z,1.38
2023-06-07T07:39:39.117Z,1.30
2023-06-07T07:42:13.240Z,1.70
2023-06-07T07:44:47.684Z,1.60
2023-06-07T07:47:21.951Z,1.88
2023-06-07T07:49:56.452Z,1.88
2023-06-07T07:52:32.053Z,1.65
2023-06-07T07:55:09.070Z,2.00
2023-06-07T07:57:46.914Z,1.85
2023-06-07T08:00:22.208Z,2.20
2023-06-07T08:02:57.348Z,2.00
2023-06-07T08:05:31.577Z,1.80
2023-06-07T08:08:07.382Z,2.08
2023-06-07T08:10:41.679Z,2.03
2023-06-07T08:13:16.207Z,2.17
2023-06-07T08:15:50.399Z,1.75
2023-06-07T08:18:24.566Z,2.40
2023-06-07T08:20:58.695Z,2.20
2023-06-07T08:23:34.168Z,2.03
2023-06-07T08:26:08.469Z,2.35
2023-06-07T08:28:42.589Z,2.10
2023-06-07T08:31:16.902Z,2.15
2023-06-07T08:33:51.537Z,2.05
2023-06-07T08:36:25.762Z,2.00
2023-06-07T08:39:01.182Z,1.98
2023-06-07T08:41:35.305Z,1.77
2023-06-07T08:44:09.777Z,1.27
2023-06-07T08:46:45.035Z,1.40
2023-06-07T08:49:19.308Z,1.65
2023-06-07T08:52:13.867Z,1.35
2023-06-07T08:54:51.919Z,1.23
2023-06-07T08:57:26.976Z,1.40
2023-06-07T09:00:08.433Z,1.33
2023-06-07T09:02:42.997Z,1.40
2023-06-07T09:05:17.428Z,1.60
2023-06-07T09:07:51.831Z,1.60
2023-06-07T09:10:27.595Z,1.45
2023-06-07T09:13:01.748Z,1.17
2023-06-07T09:15:37.624Z,1.33
2023-06-07T09:18:11.907Z,1.65
2023-06-07T09:20:46.140Z,1.50
2023-06-07T09:23:21.053Z,1.60
2023-06-07T09:25:56.757Z,1.20
2023-06-07T09:28:39.756Z,1.45
2023-06-07T09:31:15.555Z,1.02
2023-06-07T09:33:50.229Z,1.30
2023-06-07T09:36:24.461Z,1.15
2023-06-07T09:38:59.390Z,1.20
2023-06-07T09:41:35.097Z,1.40
2023-06-07T09:44:09.458Z,1.63
2023-06-07T09:46:43.693Z,1.30
2023-06-07T09:49:25.685Z,1.20
2023-06-07T09:52:00.048Z,1.30
2023-06-07T09:54:41.066Z,1.38
2023-06-07T09:57:31.659Z,1.40
2023-06-07T10:00:15.472Z,1.65
2023-06-07T10:02:52.120Z,1.33
2023-06-07T10:05:27.081Z,1.30
2023-06-07T10:08:01.911Z,1.55
2023-06-07T10:10:37.353Z,1.63
2023-06-07T10:13:15.158Z,1.48
2023-06-07T10:15:50.245Z,1.63
2023-06-07T10:18:27.616Z,1.80
2023-06-07T10:21:06.431Z,1.50
2023-06-07T10:23:49.850Z,1.60
2023-06-07T10:26:32.727Z,1.50
2023-06-07T10:29:10.791Z,1.80
2023-06-07T10:31:55.408Z,1.27
2023-06-07T10:34:32.135Z,1.42
2023-06-07T10:37:11.003Z,1.30
2023-06-07T10:39:47.287Z,1.60
2023-06-07T10:42:21.593Z,1.63
2023-06-07T10:44:57.167Z,1.80
2023-06-07T10:47:31.972Z,1.45
2023-06-07T10:50:07.886Z,1.60
2023-06-07T10:52:57.297Z,2.00
2023-06-07T10:55:33.303Z,1.58
2023-06-07T10:58:27.985Z,1.65
2023-06-07T11:01:24.962Z,1.65
2023-06-07T11:03:59.430Z,1.60
2023-06-07T11:06:34.316Z,1.27
2023-06-07T11:09:20.939Z,1.60
2023-06-07T11:11:55.765Z,1.52
2023-06-07T11:14:29.894Z,2.10
2023-06-07T11:17:05.721Z,1.85
2023-06-07T11:19:55.191Z,2.17
2023-06-07T11:22:32.910Z,1.73
2023-06-07T11:25:14.956Z,1.52
2023-06-07T11:27:56.052Z,1.90
2023-06-07T11:30:30.185Z,1.90
2023-06-07T11:33:05.806Z,1.60
2023-06-07T11:35:40.024Z,1.83
2023-06-07T11:38:14.282Z,1.85
2023-06-07T11:40:49.095Z,2.45
2023-06-07T11:43:26.157Z,2.28
2023-06-07T11:46:01.605Z,1.98
2023-06-07T11:48:37.276Z,2.00
2023-06-07T11:51:11.804Z,1.90
2023-06-07T11:53:49.208Z,1.63
2023-06-07T11:56:23.353Z,2.10
2023-06-07T11:58:59.363Z,1.92
2023-06-07T12:01:34.779Z,2.00
2023-06-07T12:04:11.746Z,1.67
2023-06-07T12:06:47.589Z,1.90
2023-06-07T12:09:23.152Z,1.80
2023-06-07T12:11:57.385Z,2.00
2023-06-07T12:14:35.149Z,1.58
2023-06-07T12:17:11.615Z,1.45
2023-06-07T12:19:47.070Z,1.75
2023-06-07T12:22:21.141Z,1.80
2023-06-07T12:24:55.274Z,2.05
2023-06-07T12:27:31.697Z,1.88
2023-06-07T12:30:08.253Z,2.00
2023-06-07T12:32:42.938Z,1.75
2023-06-07T12:35:18.687Z,1.95
2023-06-07T12:37:52.775Z,2.00
2023-06-07T12:40:27.009Z,2.00
2023-06-07T12:43:01.357Z,1.80
2023-06-07T12:45:35.618Z,1.45
2023-06-07T12:48:10.017Z,1.75
2023-06-07T12:50:45.490Z,1.73
2023-06-07T12:53:25.093Z,1.38
2023-06-07T12:55:59.352Z,1.50
2023-06-07T12:58:33.564Z,1.75
2023-06-07T13:01:07.881Z,1.80
2023-06-07T13:03:42.197Z,1.90
2023-06-07T13:06:17.929Z,1.80
2023-06-07T13:09:02.891Z,1.73
2023-06-07T13:11:39.312Z,1.73
2023-06-07T13:14:14.577Z,1.90
2023-06-07T13:16:48.827Z,2.00
2023-06-07T13:19:22.970Z,1.77
2023-06-07T13:21:58.405Z,1.85
2023-06-07T13:24:34.568Z,1.60
2023-06-07T13:27:09.829Z,1.80
2023-06-07T13:29:45.454Z,1.70
2023-06-07T13:32:22.170Z,1.50
2023-06-07T13:34:59.392Z,1.38
2023-06-07T13:37:34.878Z,1.50
2023-06-07T13:40:10.520Z,1.60
2023-06-07T13:42:44.709Z,2.08
2023-06-07T13:45:19.530Z,1.90
2023-06-07T13:47:53.658Z,1.38
2023-06-07T13:50:28.022Z,1.67
2023-06-07T13:53:03.557Z,1.75
2023-06-07T13:55:37.742Z,1.65
2023-06-07T13:58:12.254Z,1.55
2023-06-07T14:00:46.414Z,1.88
2023-06-07T14:03:21.237Z,1.40
2023-06-07T14:05:55.437Z,1.48
2023-06-07T14:08:31.045Z,1.42
2023-06-07T14:11:06.291Z,1.20
2023-06-07T14:13:40.480Z,1.45
2023-06-07T14:16:14.652Z,1.52
2023-06-07T14:18:49.064Z,1.60
2023-06-07T14:21:23.288Z,1.58
2023-06-07T14:23:58.769Z,1.30
2023-06-07T14:26:32.991Z,1.70
2023-06-07T14:29:07.177Z,1.83
2023-06-07T14:31:41.969Z,1.70
2023-06-07T14:34:16.413Z,1.75
2023-06-07T14:36:50.509Z,1.35
2023-06-07T14:39:26.133Z,1.33
2023-06-07T14:42:00.542Z,1.38
2023-06-07T14:44:34.627Z,1.60
2023-06-07T14:47:09.094Z,1.60
2023-06-07T14:49:43.181Z,1.60
2023-06-07T14:52:17.379Z,1.50
2023-06-07T14:54:52.813Z,1.30
2023-06-07T14:57:28.274Z,1.58
2023-06-07T15:00:07.003Z,1.45
2023-06-07T15:02:41.492Z,1.80
2023-06-07T15:05:15.813Z,1.55
2023-06-07T15:07:49.992Z,1.63
2023-06-07T15:10:25.506Z,1.70
2023-06-07T15:13:00.096Z,1.52
2023-06-07T15:15:34.250Z,1.60
2023-06-07T15:18:08.988Z,1.48
2023-06-07T15:20:43.375Z,1.30
2023-06-07T15:23:17.716Z,1.60
2023-06-07T15:25:53.734Z,1.20
2023-06-07T15:28:27.888Z,1.60
2023-06-07T15:31:02.136Z,1.83
2023-06-07T15:33:36.273Z,1.75
2023-06-07T15:36:10.359Z,1.63
2023-06-07T15:38:45.391Z,1.58
2023-06-07T15:41:21.773Z,1.33
2023-06-07T15:43:56.172Z,1.30
2023-06-07T15:46:30.613Z,1.25
2023-06-07T15:49:04.719Z,1.60
2023-06-07T15:51:38.895Z,1.10
2023-06-07T15:54:13.286Z,1.20
2023-06-07T15:56:48.711Z,1.15
2023-06-07T15:59:22.922Z,1.45
2023-06-07T16:01:58.700Z,1.17
2023-06-07T16:04:33.125Z,1.08
2023-06-07T16:07:07.463Z,1.05
2023-06-07T16:09:41.702Z,1.10
2023-06-07T16:12:17.245Z,1.27
2023-06-07T16:14:54.314Z,0.95
2023-06-07T16:17:28.751Z,1.23
2023-06-07T16:20:03.338Z,0.95
2023-06-07T16:22:38.109Z,1.00
2023-06-07T16:25:12.221Z,0.93
2023-06-07T16:27:47.624Z,1.10
2023-06-07T16:30:21.735Z,1.10
2023-06-07T16:32:56.057Z,1.00
2023-06-07T16:35:30.465Z,1.17
2023-06-07T16:38:04.573Z,1.00
2023-06-07T16:40:39.251Z,1.17
2023-06-07T16:43:14.662Z,0.80
2023-06-07T16:45:48.843Z,0.80
2023-06-07T16:48:23.066Z,1.00
2023-06-07T16:50:57.199Z,0.90
2023-06-07T16:53:31.501Z,1.05
2023-06-07T16:56:06.366Z,0.95
2023-06-07T16:58:41.821Z,1.10
2023-06-07T17:01:15.904Z,1.00
2023-06-07T17:03:50.179Z,0.90
2023-06-07T17:06:24.665Z,1.05
2023-06-07T17:08:58.809Z,0.90
2023-06-07T17:11:32.928Z,0.90
2023-06-07T17:14:08.483Z,1.17
2023-06-07T17:16:43.508Z,1.17
2023-06-07T17:19:17.799Z,1.20
2023-06-07T17:21:51.885Z,1.15
2023-06-07T17:24:25.977Z,0.90
2023-06-07T17:27:00.053Z,1.30
2023-06-07T17:29:35.622Z,1.13
2023-06-07T17:32:10.708Z,1.00
2023-06-07T17:34:45.128Z,1.00
2023-06-07T17:37:21.757Z,0.90
2023-06-07T17:39:56.185Z,1.00
2023-06-07T17:42:30.336Z,1.00
2023-06-07T17:45:06.933Z,0.75
2023-06-07T17:47:48.767Z,0.90
2023-06-07T17:50:37.314Z,1.00
2023-06-07T17:53:18.837Z,1.10
2023-06-07T17:55:52.905Z,0.80
2023-06-07T17:58:26.959Z,1.02
2023-06-07T18:01:02.415Z,1.15
2023-06-07T18:03:36.635Z,1.20
2023-06-07T18:06:10.711Z,1.17
2023-06-07T18:08:44.816Z,1.10
2023-06-07T18:11:19.957Z,1.00
2023-06-07T18:13:54.472Z,0.98
2023-06-07T18:16:31.196Z,1.00
2023-06-07T18:19:05.613Z,1.55
2023-06-07T18:21:39.686Z,1.10
2023-06-07T18:24:14.074Z,1.35
2023-06-07T18:26:48.317Z,1.38
2023-06-07T18:29:22.378Z,1.10
2023-06-07T18:31:57.995Z,1.05
2023-06-07T18:34:34.360Z,1.17
2023-06-07T18:37:09.345Z,1.40
2023-06-07T18:39:43.410Z,1.17
2023-06-07T18:42:17.492Z,1.30
2023-06-07T18:44:51.648Z,1.08
2023-06-07T18:47:27.488Z,1.30
2023-06-07T18:50:03.694Z,1.20
2023-06-07T18:52:37.960Z,1.10
2023-06-07T18:55:12.086Z,1.00
2023-06-07T18:57:46.511Z,1.30
2023-06-07T19:00:21.667Z,0.98
2023-06-07T19:02:57.433Z,1.05
2023-06-07T19:05:31.668Z,1.20
2023-06-07T19:08:06.213Z,0.82
2023-06-07T19:10:40.506Z,1.15
2023-06-07T19:13:15.251Z,1.25
2023-06-07T19:15:49.595Z,1.10
2023-06-07T19:18:25.581Z,0.77
2023-06-07T19:20:59.697Z,1.10
2023-06-07T19:23:33.804Z,1.13
2023-06-07T19:26:07.953Z,1.30
2023-06-07T19:28:43.412Z,1.15
2023-06-07T19:31:17.562Z,1.13
2023-06-07T19:33:53.009Z,0.85
2023-06-07T19:36:27.088Z,0.82
2023-06-07T19:39:01.220Z,1.13
2023-06-07T19:41:35.389Z,1.25
2023-06-07T19:44:09.694Z,1.05
2023-06-07T19:46:43.847Z,0.90
2023-06-07T19:49:19.302Z,1.02
2023-06-07T19:51:53.514Z,1.30
2023-06-07T19:54:27.959Z,0.90
2023-06-07T19:57:02.049Z,1.23
2023-06-07T19:59:38.669Z,1.25
2023-06-07T20:02:13.192Z,0.98
2023-06-07T20:04:48.807Z,1.25
2023-06-07T20:07:22.925Z,1.00
2023-06-07T20:10:02.610Z,1.25
2023-06-07T20:12:37.104Z,1.40
2023-06-07T20:15:13.420Z,0.90
2023-06-07T20:17:48.216Z,1.10
2023-06-07T20:20:23.780Z,1.15
2023-06-07T20:22:57.854Z,1.60
2023-06-07T20:25:32.054Z,1.65
2023-06-07T20:28:06.689Z,1.15
2023-06-07T20:30:40.855Z,1.20
2023-06-07T20:33:14.925Z,1.00
2023-06-07T20:35:50.571Z,1.33
2023-06-07T20:38:24.619Z,0.90
2023-06-07T20:40:58.904Z,1.00
2023-06-07T20:43:33.014Z,1.10
2023-06-07T20:46:07.414Z,0.70
2023-06-07T20:48:41.600Z,1.00
2023-06-07T20:51:17.278Z,0.98
2023-06-07T20:53:51.694Z,1.10
2023-06-07T20:56:25.816Z,1.13
2023-06-07T20:58:59.936Z,1.13
2023-06-07T21:01:35.254Z,1.02
2023-06-07T21:04:10.066Z,1.20
2023-06-07T21:06:45.713Z,1.05
2023-06-07T21:09:19.961Z,1.23
2023-06-07T21:11:54.098Z,1.60
2023-06-07T21:14:28.239Z,1.20
2023-06-07T21:17:03.150Z,1.00
2023-06-07T21:19:37.483Z,0.93
2023-06-07T21:22:12.915Z,1.20
2023-06-07T21:24:47.021Z,0.98
2023-06-07T21:27:21.152Z,1.30
2023-06-07T21:29:55.247Z,1.20
2023-06-07T21:32:29.451Z,0.82
2023-06-07T21:35:04.267Z,1.27
2023-06-07T21:37:40.680Z,1.15
2023-06-07T21:40:15.200Z,1.05
2023-06-07T21:42:49.415Z,1.10
2023-06-07T21:45:24.575Z,1.23
2023-06-07T21:47:59.137Z,0.82
2023-06-07T21:50:34.282Z,1.08
2023-06-07T21:53:09.836Z,1.13
2023-06-07T21:55:43.946Z,1.25
2023-06-07T21:58:18.113Z,1.58
2023-06-07T22:00:52.246Z,1.00
2023-06-07T22:03:26.458Z,1.15
2023-06-07T22:06:03.610Z,1.30
2023-06-07T22:08:39.307Z,1.10
2023-06-07T22:11:14.097Z,1.30
2023-06-07T22:13:48.789Z,1.23
2023-06-07T22:16:22.933Z,1.20
2023-06-07T22:18:57.530Z,1.30
2023-06-07T22:21:31.695Z,1.13
2023-06-07T22:24:08.837Z,1.27
2023-06-07T22:26:43.529Z,1.40
2023-06-07T22:29:18.720Z,1.30
2023-06-07T22:31:52.889Z,1.08
2023-06-07T22:34:27.072Z,1.00
2023-06-07T22:37:04.112Z,1.02
2023-06-07T22:39:40.087Z,1.00
2023-06-07T22:42:14.193Z,1.27
2023-06-07T22:44:48.330Z,1.00
2023-06-07T22:47:22.771Z,1.10
2023-06-07T22:50:05.595Z,1.38
2023-06-07T22:52:40.035Z,1.00
2023-06-07T22:55:15.473Z,1.13
2023-06-07T22:57:49.542Z,1.42
2023-06-07T23:00:23.687Z,1.20
2023-06-07T23:02:58.685Z,1.38
2023-06-07T23:05:33.677Z,1.02
2023-06-07T23:08:08.565Z,1.48
2023-06-07T23:10:44.380Z,1.17
2023-06-07T23:13:18.518Z,1.42
2023-06-07T23:15:56.695Z,1.38
2023-06-07T23:18:31.520Z,1.50
2023-06-07T23:21:07.954Z,1.13
2023-06-07T23:23:43.809Z,1.45
2023-06-07T23:26:19.751Z,1.08
2023-06-07T23:28:53.832Z,1.55
2023-06-07T23:31:28.940Z,1.23
2023-06-07T23:34:03.088Z,1.38
2023-06-07T23:36:37.158Z,1.02
2023-06-07T23:39:11.243Z,1.20
2023-06-07T23:41:48.211Z,1.27
2023-06-07T23:44:27.169Z,1.10
2023-06-07T23:47:01.510Z,1.50
2023-06-07T23:49:36.116Z,1.17
2023-06-07T23:52:10.189Z,1.27
2023-06-07T23:54:44.680Z,1.67
2023-06-07T23:57:20.060Z,1.42
2023-06-07T23:59:56.838Z,1.52
